LEJRGEML

Guest
Details From LEJR - Jerez
To GEML - Melilla
Flight Number -
Tags Routegen
Created
Modified
Stats Distance 185 nm / 343 km
Max Altitude 0 ft / 0 m
Waypoints 4
Social Downloads 6
Likes 0
Share VATSIM

Download

Looking for another format? Having issues loading an existing format? Contact us
Advertisement - Login to hide

Notes

None

Route

LEJR +36.60_-006.13 +35.65_-003.26 GEML

ID Type Via Altitude (ft/m) Position (lat/lon) Dist (leg/tot) Name
O LEJR APT - 0 / 0 36.73497 / -6.06481 - / 0 nm
+36.60_-006.13 DME - 0 / 0 36.60014 / -6.13041 8 / 8 nm
+35.65_-003.26 DME - 0 / 0 35.64712 / -3.25692 150 / 159 nm
O GEML APT - 0 / 0 35.28586 / -2.96118 26 / 185 nm

Altitude Profile

Advertisement - Login to hide

Weather


0- 5 10 15 20 25 30 35+ Temperature / °C

Clouds and Precipitation
Forecast for 2018-10-22 18:00 UTC. Updated 3 hours ago

Ground ~20,000 ft ~40,000 ft Winds

LEJR

Details ICAO LEJR (XRY)
Name Jerez
Region Spain
Timezone Europe/Madrid (UTC+2.0)
Stats Elevation 92 ft / 28 m (AMSL)
Location 36.744600° -6.060100°
Runways 1
Magnetic Variation 1.239° W

METAR

LEJR 221800Z VRB02KT 9999 SCT044 22/18 Q1019

Decode

TAF

TAF AMD LEJR 221511Z 2215/2312 VRB03KT CAVOK TX24/2312Z TN14/2306Z PROB30 TEMPO 2215/2217 4000 SHRA SCT030TCU

Decode

Departure Runways

ID Width Length Bearing (true/mag) Surface Threshold Overrun Markings Lighting
02 148 ft / 45 m 7,553 ft / 2,302 m 21.33° / 22.57° ASPHALT 0 ft / 0 m 0 ft / 0 m PREC-APP CENTERLINE EDGE THRESHOLD SALS
20 148 ft / 45 m 7,553 ft / 2,302 m 201.34° / 202.57° ASPHALT 0 ft / 0 m 0 ft / 0 m PREC-APP CENTERLINE EDGE THRESHOLD CALVERT

GEML

Details ICAO GEML (MLN)
Name MELILLA
Region Ceuta and Melilla
Timezone Africa/Casablanca (UTC+1.0)
Stats Elevation 155 ft / 47 m (AMSL)
Location 35.280200° -2.956550°
Runways 1
Magnetic Variation 0.361° W

METAR

GEML 221800Z 07004KT 030V110 9999 FEW009 BKN011 22/19 Q1020

Decode

TAF

TAF GEML 221400Z 2215/2315 09007KT CAVOK TX23/2314Z TN19/2306Z PROB40 TEMPO 2222/2309 SCT010 BKN014

Decode

Destination Runways

ID Width Length Bearing (true/mag) Surface Threshold Overrun Markings Lighting
15 148 ft / 45 m 5,173 ft / 1,577 m 146.37° / 146.73° ASPHALT 978 ft / 298 m 0 ft / 0 m APP RAIL REIL-OMNI
33 148 ft / 45 m 5,173 ft / 1,577 m 326.38° / 326.74° ASPHALT 272 ft / 83 m 0 ft / 0 m APP RAIL REIL-OMNI

Popular Alternatives